Skip Navigation Links
NOAA logo - Click to go to the NOAA homepage
NOAA's National Weather Service
Alaska Aviation Weather Unit
  NWS logo - Click to go to the NWS homepage
Left Navbar Graphic     23 AKDT = 07 GMT

   
NOAA is celebrating 200 years of science, service, and stewardship. Visit the NOAA 200th celebration Web site to learn more.
USA.gov is the U.S. Government's official Web portal to all Federal, state and local government Web resources and services.
Facebook
NWS on Facebook

Important Change Regarding the AAWU Web Presence

 

Over the last several months, the AAWU has been working to navigate its webpages to a nationally supported server. Security, as well as other needs, have necessitated the change.  In the process, we have made an effort to enhance the functionality of our website, as well as some of our products. As of June 20, 2017, aawu.arh.noaa.gov will be discontinued. The new AAWU web address is weather.gov/aawu. It is now live and will run in-parallel with the old site until it is discontinued. Please send any feedback or questions regarding the new webpages to nws.ar.aawu.webauthors@noaa.gov.  Thank you for your patience during this time of transition.
AAWU Home :: Display TAF Add Bookmark
TAF PAOM 240532Z 2406/2506 VRB05KT P6SM BKN120
     FM241100 07008KT 3SM -RA BR SCT015 OVC050
     FM241300 07009KT 1 1/2SM -RA BR OVC015
     FM241700 08009KT 1 1/2SM -RA BR OVC007
     FM242000 19012KT 1 1/2SM -RA BR OVC007=

METAR PAOM 240153Z 18004KT 10SM SCT014 BKN070 BKN200 04/03 A2976= METAR PAOM 240253Z 17004KT 10SM SCT028 BKN047 BKN200 04/03 A2976= METAR PAOM 240353Z 15006KT 10SM FEW011 SCT028 BKN200 04/02 A2975= METAR PAOM 240453Z 12006KT 10SM CLR 05/01 A2973= METAR PAOM 240553Z 13007KT 10SM CLR 04/02 A2971= METAR PAOM 240653Z 12007KT 10SM OVC100 04/03 A2970=
 Alaska TAF Map

NOAA's National Weather Service
Alaska Aviation Weather Unit
6930 Sand Lake Road
Anchorage, AK 99502-1845
Disclaimer
Credits
Glossary
Privacy Policy
About Us
Career Opportunities
Contact AAWU Internet Services Site last modified: April, 17th 2012